Time;durP1;ratioP1;P1;durP2;ratioP2;P2;SDS_P1;SDS_P2;PMS_P1;PMS_P2;Temp;Humidity;BMP_temperature;BMP_pressure;BME280_temperature;BME280_humidity;BME280_pressure;Samples;Min_cycle;Max_cycle;Signal;HPM_P1;HPM_P2
2022/08/05 00:00:11;;;;;;;;;;;;;;;27.47;60.29;100069.63;5053423;28;20252;-73
2022/08/05 00:02:42;;;;;;;;;;;;;;;27.45;60.79;100067.28;5053462;28;19920;-73
2022/08/05 00:05:07;;;;;;;;;;;;;;;27.29;60.97;100073.38;5053888;28;19916;-74
2022/08/05 00:07:33;;;;;;;;;;;;;;;27.25;61.34;100069.88;5053519;28;20259;-74
2022/08/05 00:10:07;;;;;;;;;;;;;;;27.30;61.41;100072.09;5110618;27;19924;-74
2022/08/05 00:12:34;;;;;;;;;;;;;;;27.23;61.57;100066.72;5110915;28;19973;-74
2022/08/05 00:15:02;;;;;;;;;;;;;;;27.28;61.53;100071.78;5110820;28;19920;-74
2022/08/05 00:17:30;;;;;;;;;;;;;;;27.26;61.76;100063.69;5110511;28;20332;-74
2022/08/05 00:19:58;;;;;;;;;;;;;;;27.25;62.02;100062.09;5110115;28;19919;-74
2022/08/05 00:22:29;;;;;;;;;;;;;;;27.31;61.59;100059.38;5110163;28;19966;-74
2022/08/05 00:25:11;;;;;;;;;;;;;;;27.35;61.39;100057.16;5111363;28;19920;-74
2022/08/05 00:27:38;;;;;;;;;;;;;;;27.46;60.82;100068.06;5109960;28;19923;-74
2022/08/05 00:30:07;;;;;;;;;;;;;;;27.40;60.81;100062.22;5110150;28;19916;-74
2022/08/05 00:32:38;;;;;;;;;;;;;;;27.32;61.05;100055.25;5109811;28;19916;-74
2022/08/05 00:35:06;;;;;;;;;;;;;;;27.28;61.29;100063.22;5109788;28;20028;-74
2022/08/05 00:37:32;;;;;;;;;;;;;;;27.24;61.60;100060.53;5110325;28;19923;-74
2022/08/05 00:40:03;;;;;;;;;;;;;;;27.20;61.98;100056.25;5109724;28;20294;-74
2022/08/05 00:42:29;;;;;;;;;;;;;;;27.14;62.08;100050.41;5111740;28;19968;-74
2022/08/05 00:44:58;;;;;;;;;;;;;;;27.15;62.46;100052.75;5109738;28;19941;-74
2022/08/05 00:47:26;;;;;;;;;;;;;;;27.10;62.56;100053.41;5109734;28;19923;-74
2022/08/05 00:49:54;;;;;;;;;;;;;;;27.12;62.75;100045.16;5109928;28;19939;-74
2022/08/05 00:52:23;;;;;;;;;;;;;;;27.09;63.00;100048.19;5109563;28;19916;-74
2022/08/05 00:54:51;;;;;;;;;;;;;;;27.09;63.06;100051.84;5109701;28;19973;-74
2022/08/05 00:57:16;;;;;;;;;;;;;;;27.12;60.85;100050.09;5110093;28;19916;-74
2022/08/05 00:59:47;;;;;;;;;;;;;;;27.02;61.54;100055.00;5109670;28;19937;-73
2022/08/05 01:02:12;;;;;;;;;;;;;;;27.02;61.60;100049.28;5108216;28;19961;-73
2022/08/05 01:04:40;;;;;;;;;;;;;;;27.02;61.96;100055.00;5109258;28;19916;-74
2022/08/05 01:07:11;;;;;;;;;;;;;;;27.04;61.49;100052.44;5109354;28;19916;-74
2022/08/05 01:09:37;;;;;;;;;;;;;;;27.07;61.57;100051.53;5108845;28;19920;-74
2022/08/05 01:12:05;;;;;;;;;;;;;;;27.13;61.47;100051.69;5109319;28;20377;-74
2022/08/05 01:14:32;;;;;;;;;;;;;;;27.22;61.15;100056.53;5109117;28;19916;-74
2022/08/05 01:17:05;;;;;;;;;;;;;;;27.28;61.26;100054.66;5109666;28;19920;-74
2022/08/05 01:19:30;;;;;;;;;;;;;;;27.24;60.94;100054.03;5106480;28;19916;-74
2022/08/05 01:22:21;;;;;;;;;;;;;;;27.21;61.06;100054.97;5096655;28;20015;-74
2022/08/05 01:24:59;;;;;;;;;;;;;;;27.12;61.07;100053.75;5095745;28;19920;-74
2022/08/05 01:30:30;;;;;;;;;;;;;;;27.03;60.70;100050.88;5096360;28;19969;-74
2022/08/05 01:33:00;;;;;;;;;;;;;;;27.04;60.35;100043.88;5095286;28;19916;-74
2022/08/05 01:35:32;;;;;;;;;;;;;;;26.96;60.68;100045.50;5096522;28;19916;-74
2022/08/05 01:38:03;;;;;;;;;;;;;;;26.90;60.28;100045.38;5095076;28;19920;-74
2022/08/05 01:40:31;;;;;;;;;;;;;;;26.91;60.96;100043.28;5095082;28;19916;-74
2022/08/05 01:42:59;;;;;;;;;;;;;;;26.96;60.47;100051.22;5095352;28;19920;-74
2022/08/05 01:45:26;;;;;;;;;;;;;;;26.80;60.82;100045.84;5095277;28;19920;-74
2022/08/05 01:47:52;;;;;;;;;;;;;;;26.83;60.84;100047.75;5095528;28;19917;-74
2022/08/05 01:50:24;;;;;;;;;;;;;;;26.88;60.93;100050.75;5094930;28;19923;-75
2022/08/05 01:52:54;;;;;;;;;;;;;;;26.78;61.12;100052.03;5094870;28;20015;-74
2022/08/05 01:55:21;;;;;;;;;;;;;;;26.80;61.88;100054.41;5094781;28;19970;-74
2022/08/05 01:57:50;;;;;;;;;;;;;;;26.59;62.16;100062.69;5094686;28;19923;-74
2022/08/05 02:00:21;;;;;;;;;;;;;;;26.57;62.55;100059.50;5095313;28;20032;-74
2022/08/05 02:02:55;;;;;;;;;;;;;;;26.35;63.90;100059.63;5094928;28;19923;-74
2022/08/05 02:05:22;;;;;;;;;;;;;;;26.30;64.27;100057.41;5094907;28;20251;-74
2022/08/05 02:07:48;;;;;;;;;;;;;;;26.24;64.28;100061.38;5094438;28;19920;-74
2022/08/05 02:10:13;;;;;;;;;;;;;;;26.24;64.86;100058.50;5094575;28;19916;-74
2022/08/05 02:12:39;;;;;;;;;;;;;;;26.28;64.12;100059.16;5095079;28;19916;-74
2022/08/05 02:15:20;;;;;;;;;;;;;;;26.25;64.38;100054.38;5094497;28;19939;-74
2022/08/05 02:17:51;;;;;;;;;;;;;;;26.31;64.17;100049.63;5094283;28;19923;-74
2022/08/05 02:20:24;;;;;;;;;;;;;;;26.28;63.75;100053.44;5094332;28;19967;-74
2022/08/05 02:22:55;;;;;;;;;;;;;;;26.25;64.01;100051.53;5094828;28;19916;-74
2022/08/05 02:25:27;;;;;;;;;;;;;;;26.35;63.39;100047.44;5094188;28;19931;-74
2022/08/05 02:27:57;;;;;;;;;;;;;;;26.45;63.30;100046.19;5094152;28;19920;-74
2022/08/05 02:30:28;;;;;;;;;;;;;;;26.42;63.06;100041.47;5093996;28;19916;-74
2022/08/05 02:32:54;;;;;;;;;;;;;;;26.39;62.98;100036.66;5093679;28;19916;-74
2022/08/05 02:35:24;;;;;;;;;;;;;;;26.42;63.31;100038.59;5094080;28;19916;-74
2022/08/05 02:37:56;;;;;;;;;;;;;;;26.47;63.21;100040.78;5093918;28;19917;-74
2022/08/05 02:40:23;;;;;;;;;;;;;;;26.39;63.76;100043.16;5094504;28;19922;-74
2022/08/05 02:42:51;;;;;;;;;;;;;;;26.35;63.93;100036.00;5094155;28;19916;-74
2022/08/05 02:45:20;;;;;;;;;;;;;;;26.31;64.32;100030.50;5093867;28;19916;-74
2022/08/05 02:47:46;;;;;;;;;;;;;;;26.33;64.34;100033.66;5094815;28;19924;-74
2022/08/05 02:50:14;;;;;;;;;;;;;;;26.37;63.83;100024.94;5094375;28;19916;-74
2022/08/05 02:52:40;;;;;;;;;;;;;;;26.38;63.76;100023.66;5093714;28;19916;-74
2022/08/05 02:55:07;;;;;;;;;;;;;;;26.26;64.08;100030.31;5093346;28;19916;-74
2022/08/05 02:57:37;;;;;;;;;;;;;;;26.22;63.94;100026.84;5094130;28;19923;-75
2022/08/05 03:00:08;;;;;;;;;;;;;;;26.26;63.97;100036.00;5094853;28;19916;-74
2022/08/05 03:02:36;;;;;;;;;;;;;;;26.20;63.93;100029.34;5094895;28;19923;-74
2022/08/05 03:05:05;;;;;;;;;;;;;;;26.21;64.48;100033.81;5093530;28;19916;-74
2022/08/05 03:07:32;;;;;;;;;;;;;;;26.23;63.74;100031.28;5094000;28;19916;-74
2022/08/05 03:09:58;;;;;;;;;;;;;;;26.27;63.08;100029.84;5094777;28;19931;-74
2022/08/05 03:12:33;;;;;;;;;;;;;;;26.20;63.51;100035.06;5093927;28;20409;-74
2022/08/05 03:15:01;;;;;;;;;;;;;;;26.31;63.58;100029.66;5093317;28;19923;-74
2022/08/05 03:17:33;;;;;;;;;;;;;;;26.11;64.11;100022.41;5093524;28;19923;-74
2022/08/05 03:20:01;;;;;;;;;;;;;;;26.10;64.68;100025.72;5093426;28;19916;-74
2022/08/05 03:22:29;;;;;;;;;;;;;;;26.09;64.53;100035.53;5093724;28;20373;-74
2022/08/05 03:24:54;;;;;;;;;;;;;;;26.02;65.13;100030.94;5093403;28;19920;-74
2022/08/05 03:27:20;;;;;;;;;;;;;;;26.07;64.43;100027.44;5093675;28;20338;-74
2022/08/05 03:29:48;;;;;;;;;;;;;;;26.17;64.27;100030.31;5093936;28;20389;-75
2022/08/05 03:32:18;;;;;;;;;;;;;;;26.03;64.06;100023.97;5093041;28;20023;-74
2022/08/05 03:34:44;;;;;;;;;;;;;;;26.04;64.51;100021.91;5093529;28;20274;-74
2022/08/05 03:37:12;;;;;;;;;;;;;;;26.04;64.30;100022.69;5092961;28;20374;-74
2022/08/05 03:39:40;;;;;;;;;;;;;;;25.93;64.66;100021.56;5092815;28;19962;-74
2022/08/05 03:42:09;;;;;;;;;;;;;;;25.93;65.20;100025.22;5093757;28;19916;-74
2022/08/05 03:44:34;;;;;;;;;;;;;;;25.94;64.92;100029.66;5092826;28;20064;-74
2022/08/05 03:47:02;;;;;;;;;;;;;;;25.92;65.34;100026.47;5093524;28;19967;-74
2022/08/05 03:49:27;;;;;;;;;;;;;;;25.85;65.62;100027.59;5092754;28;19920;-74
2022/08/05 03:51:58;;;;;;;;;;;;;;;25.89;65.22;100027.44;5093291;28;19917;-74
2022/08/05 03:54:53;;;;;;;;;;;;;;;25.88;65.50;100030.75;5093211;28;19920;-74
2022/08/05 03:57:28;;;;;;;;;;;;;;;25.90;65.76;100039.63;5074907;28;19923;-74
2022/08/05 03:59:59;;;;;;;;;;;;;;;25.97;65.54;100037.25;5092866;28;19956;-74
2022/08/05 04:02:32;;;;;;;;;;;;;;;26.06;65.57;100039.34;5093210;28;19916;-74
2022/08/05 04:04:58;;;;;;;;;;;;;;;26.06;65.36;100045.84;5092863;28;19919;-74
2022/08/05 04:07:30;;;;;;;;;;;;;;;26.07;65.35;100036.00;5092460;28;19923;-74
2022/08/05 04:10:01;;;;;;;;;;;;;;;26.10;65.12;100043.63;5092069;28;19920;-74
2022/08/05 04:12:30;;;;;;;;;;;;;;;26.07;65.37;100047.41;5093129;28;20289;-74
2022/08/05 04:14:59;;;;;;;;;;;;;;;26.10;65.21;100046.47;5093881;28;19916;-74
2022/08/05 04:17:24;;;;;;;;;;;;;;;26.06;65.39;100036.50;5094012;28;19966;-74
2022/08/05 04:19:55;;;;;;;;;;;;;;;26.07;64.77;100038.84;5092204;28;19920;-75
2022/08/05 04:22:23;;;;;;;;;;;;;;;26.18;64.19;100049.78;5092590;28;19916;-74
2022/08/05 04:24:51;;;;;;;;;;;;;;;26.08;64.98;100046.13;5092616;28;19985;-74
2022/08/05 04:27:21;;;;;;;;;;;;;;;26.05;65.26;100043.47;5092396;28;19916;-74
2022/08/05 04:29:49;;;;;;;;;;;;;;;26.18;65.04;100054.72;5093994;28;20355;-74
2022/08/05 04:32:17;;;;;;;;;;;;;;;26.56;63.80;100051.41;5092822;28;19916;-75
2022/08/05 04:34:48;;;;;;;;;;;;;;;26.93;62.89;100057.88;5092499;28;19920;-74
2022/08/05 04:37:13;;;;;;;;;;;;;;;27.33;61.25;100056.84;5093769;28;19951;-75
2022/08/05 04:39:39;;;;;;;;;;;;;;;27.63;59.86;100054.97;5092961;28;20030;-75
2022/08/05 04:42:04;;;;;;;;;;;;;;;27.82;58.82;100053.63;5092805;28;19915;-75
2022/08/05 04:44:30;;;;;;;;;;;;;;;28.12;57.82;100060.25;5092602;28;19923;-75
2022/08/05 04:46:56;;;;;;;;;;;;;;;28.45;56.74;100056.56;5093674;28;19982;-74
2022/08/05 04:49:24;;;;;;;;;;;;;;;28.77;55.76;100054.03;5092108;28;19917;-74
2022/08/05 04:51:50;;;;;;;;;;;;;;;29.11;55.22;100059.09;5092987;28;19920;-74
2022/08/05 04:54:17;;;;;;;;;;;;;;;29.38;53.92;100054.34;5092568;28;19917;-75
2022/08/05 04:56:43;;;;;;;;;;;;;;;29.81;52.75;100055.56;5096046;28;19973;-75
2022/08/05 04:59:08;;;;;;;;;;;;;;;30.08;52.12;100045.75;5096253;28;19920;-75
2022/08/05 05:01:34;;;;;;;;;;;;;;;30.41;50.83;100053.22;5096306;28;19916;-74
2022/08/05 05:04:00;;;;;;;;;;;;;;;30.69;50.87;100051.50;5095988;28;20342;-75
2022/08/05 05:06:26;;;;;;;;;;;;;;;31.03;50.02;100051.84;5096354;28;19916;-75
2022/08/05 05:08:51;;;;;;;;;;;;;;;31.27;49.24;100060.19;5096159;28;19920;-75
2022/08/05 05:11:17;;;;;;;;;;;;;;;31.35;48.40;100052.66;5096622;28;20018;-75
2022/08/05 05:13:42;;;;;;;;;;;;;;;31.73;47.73;100060.00;5095762;28;19969;-75
2022/08/05 05:16:14;;;;;;;;;;;;;;;31.56;47.84;100059.09;5096209;28;19924;-75
2022/08/05 05:18:42;;;;;;;;;;;;;;;31.78;46.98;100059.25;5096831;28;19916;-75
2022/08/05 05:21:08;;;;;;;;;;;;;;;31.77;46.48;100069.19;5097467;28;19920;-75
2022/08/05 05:23:33;;;;;;;;;;;;;;;32.23;45.56;100056.66;5095868;28;19916;-75
2022/08/05 05:25:59;;;;;;;;;;;;;;;32.29;45.93;100060.34;5096371;28;19919;-75
2022/08/05 05:28:25;;;;;;;;;;;;;;;32.36;44.51;100064.84;5096004;28;20405;-75
2022/08/05 05:30:50;;;;;;;;;;;;;;;32.65;44.57;100065.72;5095287;28;20359;-74
2022/08/05 05:33:19;;;;;;;;;;;;;;;33.13;43.08;100056.91;5095341;28;19961;-74
2022/08/05 05:35:45;;;;;;;;;;;;;;;33.14;42.46;100067.16;5095453;28;19924;-76
2022/08/05 05:38:11;;;;;;;;;;;;;;;32.97;42.13;100069.22;5095212;28;20362;-75
2022/08/05 05:40:38;;;;;;;;;;;;;;;33.40;41.45;100072.66;5096594;28;19920;-75
2022/08/05 05:43:09;;;;;;;;;;;;;;;33.53;41.00;100075.81;5095175;28;20008;-75
2022/08/05 05:45:49;;;;;;;;;;;;;;;33.58;41.56;100074.25;5095202;28;19917;-75
2022/08/05 05:48:18;;;;;;;;;;;;;;;33.49;41.55;100074.50;5096973;28;19916;-75
2022/08/05 05:50:44;;;;;;;;;;;;;;;34.07;39.69;100077.59;5095497;28;19916;-75
2022/08/05 05:53:14;;;;;;;;;;;;;;;34.11;39.98;100073.13;5095713;28;19969;-76
2022/08/05 05:55:40;;;;;;;;;;;;;;;33.63;41.13;100074.25;5095435;28;19916;-75
2022/08/05 05:58:05;;;;;;;;;;;;;;;33.75;40.43;100075.00;5094863;28;19916;-73
2022/08/05 06:00:36;;;;;;;;;;;;;;;33.92;40.33;100082.84;5096288;28;19931;-73
2022/08/05 06:03:02;;;;;;;;;;;;;;;33.13;42.02;100079.97;5095335;28;20278;-73
2022/08/05 06:05:30;;;;;;;;;;;;;;;33.72;41.21;100081.03;5094868;28;19920;-74
2022/08/05 06:07:56;;;;;;;;;;;;;;;33.16;42.44;100073.19;5096468;28;19916;-74
2022/08/05 06:10:22;;;;;;;;;;;;;;;33.28;42.76;100077.63;5094953;28;19916;-73
2022/08/05 06:12:47;;;;;;;;;;;;;;;32.80;43.85;100072.81;5094970;28;19920;-74
2022/08/05 06:15:13;;;;;;;;;;;;;;;33.04;43.76;100086.00;5094848;28;19916;-73
2022/08/05 06:17:39;;;;;;;;;;;;;;;32.66;43.98;100073.06;5094741;28;19965;-73
2022/08/05 06:20:04;;;;;;;;;;;;;;;32.48;45.34;100083.72;5095029;28;20261;-73
2022/08/05 06:22:32;;;;;;;;;;;;;;;32.14;46.23;100085.66;5094977;28;19917;-73
2022/08/05 06:24:57;;;;;;;;;;;;;;;31.60;47.94;100087.63;5094815;28;19924;-75
2022/08/05 06:27:23;;;;;;;;;;;;;;;31.33;48.82;100091.84;5094623;28;19923;-75
2022/08/05 06:29:49;;;;;;;;;;;;;;;30.75;51.23;100094.66;5094588;28;19916;-75
2022/08/05 06:32:14;;;;;;;;;;;;;;;31.14;50.68;100092.16;5095345;28;20348;-75
2022/08/05 06:34:45;;;;;;;;;;;;;;;30.71;51.51;100102.69;5094107;28;19955;-74
2022/08/05 06:37:11;;;;;;;;;;;;;;;30.95;50.97;100094.63;5094055;28;20347;-74
2022/08/05 06:39:45;;;;;;;;;;;;;;;30.43;52.98;100087.97;5093987;28;19916;-74
2022/08/05 06:42:14;;;;;;;;;;;;;;;31.60;49.69;100093.38;5094617;28;19924;-75
2022/08/05 06:44:41;;;;;;;;;;;;;;;31.44;50.49;100087.00;5093992;28;19920;-75
2022/08/05 06:47:07;;;;;;;;;;;;;;;31.02;50.27;100096.25;5094273;28;19916;-75
2022/08/05 06:49:33;;;;;;;;;;;;;;;31.55;49.92;100094.91;5094257;28;20007;-75
2022/08/05 06:51:59;;;;;;;;;;;;;;;30.77;52.98;100089.97;5094704;28;19920;-74
2022/08/05 06:54:29;;;;;;;;;;;;;;;30.66;53.22;100091.91;5094761;28;19916;-75
2022/08/05 06:56:57;;;;;;;;;;;;;;;30.51;53.53;100091.97;5095399;28;19985;-74
2022/08/05 06:59:24;;;;;;;;;;;;;;;31.78;50.27;100093.75;5093710;28;19958;-74
2022/08/05 07:01:54;;;;;;;;;;;;;;;31.22;51.49;100104.00;5095171;28;19916;-75
2022/08/05 07:04:25;;;;;;;;;;;;;;;32.40;49.19;100104.91;5093660;28;19916;-74
2022/08/05 07:07:02;;;;;;;;;;;;;;;32.95;47.63;100101.44;5093773;28;20018;-74
2022/08/05 07:09:28;;;;;;;;;;;;;;;32.71;47.03;100103.97;5093506;28;19972;-75
2022/08/05 07:11:54;;;;;;;;;;;;;;;32.14;48.34;100100.03;5093707;28;20006;-75
2022/08/05 07:17:04;;;;;;;;;;;;;;;33.65;44.80;100102.56;5094621;28;19923;-73
2022/08/05 07:19:33;;;;;;;;;;;;;;;33.41;45.90;100102.28;5092797;28;19916;-72
2022/08/05 07:21:58;;;;;;;;;;;;;;;33.22;46.19;100107.78;5093420;28;19927;-72
2022/08/05 07:24:34;;;;;;;;;;;;;;;34.05;44.50;100111.97;5092928;28;20274;-73
2022/08/05 07:27:00;;;;;;;;;;;;;;;34.72;43.11;100108.84;5092989;28;19969;-72
2022/08/05 07:29:27;;;;;;;;;;;;;;;35.71;40.94;100107.94;5092622;28;20018;-72
2022/08/05 07:31:55;;;;;;;;;;;;;;;35.66;40.28;100102.97;5054004;28;20007;-73
2022/08/05 07:34:21;;;;;;;;;;;;;;;34.67;42.38;100113.34;5062321;28;20385;-74
2022/08/05 07:36:46;;;;;;;;;;;;;;;35.18;41.29;100098.63;5072621;28;19917;-73
2022/08/05 07:39:11;;;;;;;;;;;;;;;34.69;42.15;100104.16;5072926;28;19923;-74
2022/08/05 07:41:37;;;;;;;;;;;;;;;34.05;43.39;100095.44;5072923;28;19920;-74
2022/08/05 07:44:10;;;;;;;;;;;;;;;33.14;45.07;100095.97;5073314;28;19964;-73
2022/08/05 07:46:35;;;;;;;;;;;;;;;33.34;45.72;100095.72;5072802;28;19916;-73
2022/08/05 07:49:04;;;;;;;;;;;;;;;34.10;43.78;100108.28;5072236;28;19920;-73
2022/08/05 07:51:29;;;;;;;;;;;;;;;35.07;41.17;100098.69;5071562;28;19916;-74
2022/08/05 07:53:55;;;;;;;;;;;;;;;36.03;39.91;100107.38;5061172;28;19916;-74
2022/08/05 07:56:21;;;;;;;;;;;;;;;36.32;38.20;100106.50;5062020;28;20012;-74
2022/08/05 07:58:46;;;;;;;;;;;;;;;36.51;37.63;100102.91;5069199;28;20428;-74
2022/08/05 08:01:11;;;;;;;;;;;;;;;36.23;38.62;100106.91;5072483;28;19917;-74
2022/08/05 08:03:48;;;;;;;;;;;;;;;35.67;38.98;100098.75;5072633;28;19971;-73
2022/08/05 08:06:14;;;;;;;;;;;;;;;35.78;38.80;100104.44;5072276;28;20408;-74
2022/08/05 08:08:42;;;;;;;;;;;;;;;36.37;37.17;100105.66;5072046;28;19936;-74
2022/08/05 08:11:08;;;;;;;;;;;;;;;36.20;37.49;100094.28;5072812;28;19927;-73
2022/08/05 08:13:33;;;;;;;;;;;;;;;36.61;36.75;100104.09;5072239;28;19916;-74
2022/08/05 08:16:01;;;;;;;;;;;;;;;36.35;37.05;100093.06;5072350;28;19916;-74
2022/08/05 08:18:26;;;;;;;;;;;;;;;35.95;37.66;100093.50;5072633;28;19968;-74
2022/08/05 08:20:54;;;;;;;;;;;;;;;34.90;40.58;100093.78;5072569;28;20440;-74
2022/08/05 08:23:20;;;;;;;;;;;;;;;34.74;40.30;100097.56;5072216;28;19975;-73
2022/08/05 08:25:48;;;;;;;;;;;;;;;34.45;41.42;100090.34;5072318;28;19952;-74
2022/08/05 08:28:13;;;;;;;;;;;;;;;34.73;40.76;100092.28;5071992;28;19985;-73
2022/08/05 08:30:44;;;;;;;;;;;;;;;35.45;39.38;100087.38;5069640;28;19916;-74
2022/08/05 08:33:10;;;;;;;;;;;;;;;35.87;38.35;100089.63;5075759;28;19962;-74
2022/08/05 08:35:41;;;;;;;;;;;;;;;37.05;36.18;100096.09;5076659;28;19920;-74
2022/08/05 08:38:06;;;;;;;;;;;;;;;37.49;34.86;100089.59;5076220;28;19971;-73
2022/08/05 08:40:34;;;;;;;;;;;;;;;37.44;34.80;100093.38;5076591;28;19952;-73
2022/08/05 08:43:03;;;;;;;;;;;;;;;38.04;33.67;100097.88;5076405;28;19916;-73
2022/08/05 08:45:36;;;;;;;;;;;;;;;38.33;33.39;100090.19;5077385;28;19916;-74
2022/08/05 08:48:04;;;;;;;;;;;;;;;38.71;31.61;100098.59;5076752;28;20263;-73
2022/08/05 08:50:32;;;;;;;;;;;;;;;38.15;31.60;100096.88;5076199;28;19923;-73
2022/08/05 08:53:02;;;;;;;;;;;;;;;38.33;31.94;100093.09;5075665;28;19916;-73
2022/08/05 08:55:27;;;;;;;;;;;;;;;37.80;32.42;100089.31;5075706;28;19959;-74
2022/08/05 08:57:53;;;;;;;;;;;;;;;37.29;32.42;100101.78;5075694;28;20394;-74
2022/08/05 09:00:18;;;;;;;;;;;;;;;36.87;32.93;100100.56;5075403;28;19923;-74
2022/08/05 09:02:44;;;;;;;;;;;;;;;36.90;32.49;100091.56;5075646;28;20007;-76
2022/08/05 09:05:21;;;;;;;;;;;;;;;37.01;32.48;100095.63;5075578;28;19964;-75
2022/08/05 09:07:47;;;;;;;;;;;;;;;37.29;32.21;100096.00;5075522;28;20028;-75
2022/08/05 09:10:18;;;;;;;;;;;;;;;37.98;31.67;100095.09;5074055;28;19951;-74
2022/08/05 09:12:47;;;;;;;;;;;;;;;36.80;33.31;100099.06;5075275;28;19922;-74
2022/08/05 09:15:15;;;;;;;;;;;;;;;38.20;31.19;100095.97;5075244;28;19916;-75
2022/08/05 09:17:41;;;;;;;;;;;;;;;38.46;30.38;100101.81;5075720;28;19927;-73
2022/08/05 09:20:09;;;;;;;;;;;;;;;38.59;29.35;100094.41;5075024;28;19916;-74
2022/08/05 09:22:53;;;;;;;;;;;;;;;38.48;29.42;100107.81;5076904;28;19923;-73
2022/08/05 09:25:20;;;;;;;;;;;;;;;38.93;29.47;100095.22;5075169;28;19916;-74
2022/08/05 09:27:48;;;;;;;;;;;;;;;38.87;28.63;100103.28;5074954;28;19916;-74
2022/08/05 09:30:16;;;;;;;;;;;;;;;38.45;28.89;100094.41;5075038;28;19918;-74
2022/08/05 09:32:41;;;;;;;;;;;;;;;38.35;29.29;100081.69;5075572;28;19916;-74
2022/08/05 09:35:14;;;;;;;;;;;;;;;39.53;27.26;100102.28;5074901;28;20294;-74
2022/08/05 09:37:48;;;;;;;;;;;;;;;40.17;26.29;100087.09;5074962;28;19917;-74
2022/08/05 09:40:35;;;;;;;;;;;;;;;39.38;26.85;100088.34;5075135;28;20395;-74
2022/08/05 09:43:01;;;;;;;;;;;;;;;39.30;26.68;100093.31;5075669;28;19924;-74
2022/08/05 09:45:40;;;;;;;;;;;;;;;39.48;26.42;100080.69;5074676;28;19917;-74
2022/08/05 09:48:24;;;;;;;;;;;;;;;39.92;24.93;100075.03;5074949;28;20363;-74
2022/08/05 09:50:53;;;;;;;;;;;;;;;39.18;26.19;100087.00;5066274;28;20015;-74
2022/08/05 09:53:24;;;;;;;;;;;;;;;39.75;25.27;100078.41;5055248;28;19923;-73
2022/08/05 09:55:55;;;;;;;;;;;;;;;39.53;25.87;100071.03;5056173;28;19916;-74
2022/08/05 09:58:20;;;;;;;;;;;;;;;38.03;28.33;100073.06;5055094;28;19917;-74
2022/08/05 10:01:05;;;;;;;;;;;;;;;37.59;28.61;100063.06;5054573;28;20252;-74
2022/08/05 10:03:31;;;;;;;;;;;;;;;38.20;28.49;100066.94;5054755;28;19975;-73
2022/08/05 10:06:18;;;;;;;;;;;;;;;37.90;29.15;100065.13;5054189;28;19966;-74
2022/08/05 10:08:43;;;;;;;;;;;;;;;38.85;29.00;100065.28;5053766;28;19928;-74
2022/08/05 10:11:16;;;;;;;;;;;;;;;38.18;30.39;100069.59;5055648;28;19921;-74
2022/08/05 10:13:42;;;;;;;;;;;;;;;37.73;31.05;100067.56;5054230;28;19923;-74
2022/08/05 10:16:27;;;;;;;;;;;;;;;37.18;31.70;100058.44;5054737;28;20011;-74
2022/08/05 10:18:53;;;;;;;;;;;;;;;37.37;32.22;100050.50;5054333;28;19917;-74
2022/08/05 10:21:19;;;;;;;;;;;;;;;37.31;32.10;100049.78;5054199;28;20008;-74
2022/08/05 10:23:47;;;;;;;;;;;;;;;36.58;33.04;100044.31;5054503;28;20015;-74
2022/08/05 10:26:12;;;;;;;;;;;;;;;36.96;33.27;100042.97;5054076;28;19970;-74
2022/08/05 10:28:37;;;;;;;;;;;;;;;38.02;30.86;100045.38;5054219;28;19929;-74
2022/08/05 10:31:03;;;;;;;;;;;;;;;38.21;30.51;100042.34;5054619;28;19917;-74
2022/08/05 10:33:30;;;;;;;;;;;;;;;38.58;30.09;100049.25;5053920;28;20375;-74
2022/08/05 10:35:59;;;;;;;;;;;;;;;37.76;29.34;100043.19;5054132;28;19917;-74
2022/08/05 10:38:26;;;;;;;;;;;;;;;37.45;31.40;100036.94;5053727;28;20008;-74
2022/08/05 10:41:01;;;;;;;;;;;;;;;37.64;31.40;100033.94;5054588;28;20351;-73
2022/08/05 10:43:36;;;;;;;;;;;;;;;36.87;31.25;100034.66;5054239;28;19921;-74
2022/08/05 10:46:06;;;;;;;;;;;;;;;37.57;29.83;100036.72;5054284;28;20367;-74
2022/08/05 10:48:34;;;;;;;;;;;;;;;37.49;31.44;100037.34;5053379;28;19944;-74
2022/08/05 10:51:03;;;;;;;;;;;;;;;37.34;31.75;100025.50;5053273;28;19917;-74
2022/08/05 10:53:52;;;;;;;;;;;;;;;36.55;33.38;100025.16;5052617;28;19920;-74
2022/08/05 10:56:19;;;;;;;;;;;;;;;36.70;33.20;100032.03;5048136;28;19924;-73
2022/08/05 10:58:54;;;;;;;;;;;;;;;36.64;32.87;100022.59;5053528;28;19960;-74
2022/08/05 11:01:35;;;;;;;;;;;;;;;36.62;32.11;100030.31;5054280;28;19975;-73
2022/08/05 11:04:04;;;;;;;;;;;;;;;36.79;32.29;100025.03;5054369;28;19916;-73
2022/08/05 11:06:33;;;;;;;;;;;;;;;37.46;31.30;100026.09;5053242;28;19916;-73
2022/08/05 11:09:14;;;;;;;;;;;;;;;37.17;31.67;100022.84;5052924;28;19963;-73
2022/08/05 11:11:42;;;;;;;;;;;;;;;36.63;32.42;100020.28;5054430;28;19995;-74
2022/08/05 11:14:11;;;;;;;;;;;;;;;36.90;31.88;100024.88;5054191;28;19921;-73
2022/08/05 11:16:37;;;;;;;;;;;;;;;35.70;32.99;100022.44;5053657;28;19948;-74
2022/08/05 11:19:21;;;;;;;;;;;;;;;36.70;31.74;100014.63;5053792;28;20355;-73
2022/08/05 11:21:51;;;;;;;;;;;;;;;36.31;32.74;100018.03;5053266;28;20376;-73
2022/08/05 11:24:25;;;;;;;;;;;;;;;36.16;33.52;100015.59;5053536;28;19956;-74
2022/08/05 11:27:10;;;;;;;;;;;;;;;35.74;34.96;100016.34;5061069;28;19952;-74
2022/08/05 11:29:39;;;;;;;;;;;;;;;36.93;33.38;100015.09;5072612;28;20363;-73
2022/08/05 11:32:24;;;;;;;;;;;;;;;35.64;37.40;100010.16;5074745;28;19967;-73
2022/08/05 11:34:52;;;;;;;;;;;;;;;35.01;39.90;100008.34;5073176;28;20001;-73
2022/08/05 11:37:36;;;;;;;;;;;;;;;35.67;38.77;100011.94;5071048;28;19920;-74
2022/08/05 11:40:03;;;;;;;;;;;;;;;35.13;40.79;100004.03;5063906;28;20393;-74
2022/08/05 11:42:30;;;;;;;;;;;;;;;35.74;39.12;100016.34;5053439;28;19924;-74
2022/08/05 11:45:02;;;;;;;;;;;;;;;35.40;39.57;100011.66;5053731;28;20273;-73
2022/08/05 11:47:28;;;;;;;;;;;;;;;35.70;40.46;100007.97;5060252;28;19923;-73
2022/08/05 11:50:00;;;;;;;;;;;;;;;34.92;41.44;100007.31;5071438;28;19920;-73
2022/08/05 11:52:26;;;;;;;;;;;;;;;34.84;41.86;99994.78;5073140;28;19916;-74
2022/08/05 11:54:58;;;;;;;;;;;;;;;34.59;43.58;100005.44;5073090;28;19966;-73
2022/08/05 11:57:30;;;;;;;;;;;;;;;34.58;43.36;100000.22;5072134;28;19916;-73
2022/08/05 11:59:58;;;;;;;;;;;;;;;35.36;41.54;99990.91;5071850;28;19917;-74
2022/08/05 12:02:44;;;;;;;;;;;;;;;34.72;42.04;99987.50;5052415;28;19921;-73
2022/08/05 12:05:26;;;;;;;;;;;;;;;35.01;41.16;99986.00;5052698;28;19917;-73
2022/08/05 12:07:53;;;;;;;;;;;;;;;35.01;39.43;99993.88;5052804;28;20275;-74
2022/08/05 12:10:21;;;;;;;;;;;;;;;34.42;42.87;99980.84;5051961;28;20383;-74
2022/08/05 12:12:49;;;;;;;;;;;;;;;35.16;40.95;99979.84;5052187;28;20256;-73
2022/08/05 12:15:21;;;;;;;;;;;;;;;34.76;41.94;99970.66;5056249;28;19920;-74
2022/08/05 12:17:46;;;;;;;;;;;;;;;34.77;43.40;99971.44;5062864;28;20007;-74
2022/08/05 12:20:12;;;;;;;;;;;;;;;34.53;44.04;99972.16;5058122;28;20016;-73
2022/08/05 12:22:44;;;;;;;;;;;;;;;34.89;42.73;99962.16;5069477;28;19928;-73
2022/08/05 12:25:09;;;;;;;;;;;;;;;35.56;40.07;99965.78;5068566;28;19920;-73
2022/08/05 12:27:41;;;;;;;;;;;;;;;35.37;40.25;99968.56;5052242;28;20271;-74
2022/08/05 12:30:26;;;;;;;;;;;;;;;34.76;41.27;99964.09;5053581;28;20389;-74
2022/08/05 12:32:54;;;;;;;;;;;;;;;34.84;40.63;99965.09;5052534;28;19917;-74
2022/08/05 12:35:23;;;;;;;;;;;;;;;35.50;38.50;99965.84;5052146;28;19947;-73
2022/08/05 12:37:54;;;;;;;;;;;;;;;35.88;37.18;99958.03;5052151;28;19921;-74
2022/08/05 12:40:23;;;;;;;;;;;;;;;35.25;38.32;99962.13;5052037;28;19917;-73
2022/08/05 12:42:49;;;;;;;;;;;;;;;35.17;40.23;99959.03;5052656;28;19921;-73
2022/08/05 12:45:14;;;;;;;;;;;;;;;34.76;41.68;99959.09;5052359;28;20375;-73
2022/08/05 12:47:40;;;;;;;;;;;;;;;34.34;42.73;99958.31;5052094;28;19917;-73
2022/08/05 12:50:15;;;;;;;;;;;;;;;34.60;41.68;99965.78;5052317;28;20035;-74
2022/08/05 12:52:43;;;;;;;;;;;;;;;34.64;41.94;99966.28;5052487;28;19917;-74